Haviland, Ohio
Current Conditions -  °F | °C
As of 5:53 AM on Friday 24 Oct 2014 (Local Time) from KDFI Reporting Station
Haze Haze  
Wind Chill: 35°   Ceiling: Unl
Heat Index: 35°   Visibility: 6mi
Dew Point: 33°   Wind: 3mph
Humidity: 92%   Direction: 170°S
Pressure: 30.1"   Gusts: NA
Location:  41.02°N, 84.58°W
Report Text: KDFI 240953Z AUTO 17003KT 6SM BR CLR 02/01 A3010 RMK AO2 SLP197 T00170006
Loading
Personal Weather Stations






























Interactive Weather Map
Tropical Storm Tracking
New forecast layout! Learn more

10-Day Weather Forecast

Advertisements
Track Severe Weather on mobile